createdAt,value
2018-05-12T00:00:18.478Z,17.87
2018-05-12T00:02:46.824Z,17.97
2018-05-12T00:05:15.169Z,17.96
2018-05-12T00:07:43.520Z,18.01
2018-05-12T00:10:11.857Z,18.01
2018-05-12T00:12:40.217Z,17.90
2018-05-12T00:15:08.561Z,17.97
2018-05-12T00:17:36.913Z,17.90
2018-05-12T00:20:05.249Z,17.75
2018-05-12T00:22:33.609Z,17.66
2018-05-12T00:25:01.949Z,17.69
2018-05-12T00:27:30.306Z,17.69
2018-05-12T00:29:58.638Z,17.61
2018-05-12T00:32:26.995Z,17.50
2018-05-12T00:34:55.333Z,17.43
2018-05-12T00:37:23.688Z,17.42
2018-05-12T00:39:52.021Z,17.46
2018-05-12T00:42:20.385Z,17.46
2018-05-12T00:44:48.739Z,17.50
2018-05-12T00:47:17.072Z,17.32
2018-05-12T00:49:45.410Z,17.29
2018-05-12T00:52:13.760Z,17.34
2018-05-12T00:54:42.101Z,17.31
2018-05-12T00:57:10.461Z,17.25
2018-05-12T00:59:38.801Z,17.28
2018-05-12T01:02:07.165Z,17.35
2018-05-12T01:04:35.501Z,17.29
2018-05-12T01:07:03.859Z,17.37
2018-05-12T01:09:32.192Z,17.30
2018-05-12T01:12:00.553Z,17.16
2018-05-12T01:14:28.889Z,17.10
2018-05-12T01:16:57.250Z,17.10
2018-05-12T01:19:25.604Z,17.08
2018-05-12T01:21:53.957Z,17.02
2018-05-12T01:24:22.292Z,16.97
2018-05-12T01:26:50.648Z,16.80
2018-05-12T01:29:18.984Z,16.88
2018-05-12T01:31:47.349Z,16.98
2018-05-12T01:34:15.695Z,16.91
2018-05-12T01:36:44.032Z,16.95
2018-05-12T01:39:12.377Z,16.98
2018-05-12T01:41:40.709Z,16.99
2018-05-12T01:44:09.065Z,17.03
2018-05-12T01:46:37.403Z,17.01
2018-05-12T01:49:05.753Z,17.01
2018-05-12T01:51:34.090Z,17.03
2018-05-12T01:54:02.449Z,17.08
2018-05-12T01:56:30.782Z,17.06
2018-05-12T01:58:59.132Z,17.00
2018-05-12T02:01:27.460Z,16.92
2018-05-12T02:03:55.813Z,16.88
2018-05-12T02:06:24.145Z,16.76
2018-05-12T02:08:52.495Z,16.72
2018-05-12T02:11:20.829Z,16.68
2018-05-12T02:13:49.184Z,16.65
2018-05-12T02:16:17.520Z,16.67
2018-05-12T02:18:45.883Z,16.58
2018-05-12T02:21:14.221Z,16.59
2018-05-12T02:23:42.569Z,16.56
2018-05-12T02:26:10.905Z,16.54
2018-05-12T02:28:39.255Z,16.57
2018-05-12T02:31:07.588Z,16.53
2018-05-12T02:33:35.934Z,16.42
2018-05-12T02:36:04.265Z,16.42
2018-05-12T02:38:32.616Z,16.44
2018-05-12T02:41:00.950Z,16.49
2018-05-12T02:43:29.300Z,16.60
2018-05-12T02:45:57.637Z,16.61
2018-05-12T02:48:25.988Z,16.47
2018-05-12T02:50:54.333Z,16.39
2018-05-12T02:53:22.689Z,16.34
2018-05-12T02:55:51.027Z,16.29
2018-05-12T02:58:19.399Z,16.10
2018-05-12T03:00:47.725Z,16.04
2018-05-12T03:03:16.076Z,16.11
2018-05-12T03:05:44.408Z,16.02
2018-05-12T03:08:12.765Z,15.91
2018-05-12T03:10:41.102Z,15.79
2018-05-12T03:13:09.452Z,15.75
2018-05-12T03:15:37.790Z,15.70
2018-05-12T03:18:06.148Z,15.64
2018-05-12T03:20:34.481Z,15.69
2018-05-12T03:23:02.840Z,15.82
2018-05-12T03:25:31.168Z,15.80
2018-05-12T03:27:59.526Z,15.79
2018-05-12T03:30:27.864Z,15.81
2018-05-12T03:32:56.208Z,15.89
2018-05-12T03:35:24.540Z,15.86
2018-05-12T03:37:52.877Z,15.95
2018-05-12T03:40:21.230Z,15.96
2018-05-12T03:42:49.561Z,15.98
2018-05-12T03:45:17.921Z,16.04
2018-05-12T03:47:46.252Z,15.90
2018-05-12T03:50:14.647Z,15.79
2018-05-12T03:52:42.928Z,15.78
2018-05-12T03:55:11.285Z,15.64
2018-05-12T03:57:39.621Z,15.60
2018-05-12T04:00:07.978Z,15.68
2018-05-12T04:02:36.309Z,15.70
2018-05-12T04:05:16.545Z,15.73
2018-05-12T04:07:56.769Z,15.80
2018-05-12T04:10:42.460Z,15.74
2018-05-12T04:13:10.800Z,15.74
2018-05-12T04:15:39.166Z,15.64
2018-05-12T04:18:07.492Z,15.68
2018-05-12T04:20:35.844Z,15.68
2018-05-12T04:23:04.185Z,15.74
2018-05-12T04:25:32.552Z,15.81
2018-05-12T04:28:00.895Z,15.88
2018-05-12T04:30:29.247Z,15.81
2018-05-12T04:32:57.581Z,15.85
2018-05-12T04:35:25.952Z,15.90
2018-05-12T04:37:54.285Z,15.91
2018-05-12T04:40:22.636Z,15.97
2018-05-12T04:42:50.971Z,16.11
2018-05-12T04:45:19.329Z,16.12
2018-05-12T04:47:47.667Z,16.17
2018-05-12T04:50:16.013Z,16.17
2018-05-12T04:52:44.340Z,16.20
2018-05-12T04:55:12.692Z,16.17
2018-05-12T04:57:41.026Z,16.21
2018-05-12T05:00:09.377Z,16.21
2018-05-12T05:02:37.717Z,16.24
2018-05-12T05:05:06.069Z,16.33
2018-05-12T05:07:34.408Z,16.39
2018-05-12T05:10:02.753Z,16.31
2018-05-12T05:12:31.084Z,16.42
2018-05-12T05:14:59.436Z,16.43
2018-05-12T05:17:27.780Z,16.38
2018-05-12T05:19:56.132Z,16.42
2018-05-12T05:22:24.465Z,16.53
2018-05-12T05:24:52.819Z,16.51
2018-05-12T05:27:21.140Z,16.49
2018-05-12T05:29:49.512Z,16.52
2018-05-12T05:32:17.846Z,16.53
2018-05-12T05:34:46.200Z,16.49
2018-05-12T05:37:14.536Z,16.60
2018-05-12T05:39:42.893Z,16.63
2018-05-12T05:42:11.221Z,16.66
2018-05-12T05:44:39.576Z,16.68
2018-05-12T05:47:07.917Z,16.66
2018-05-12T05:49:36.269Z,16.71
2018-05-12T05:52:04.606Z,16.71
2018-05-12T05:54:32.953Z,16.81
2018-05-12T05:57:01.302Z,16.72
2018-05-12T05:59:29.632Z,16.77
2018-05-12T06:01:57.988Z,16.77
2018-05-12T06:04:26.350Z,16.82
2018-05-12T06:06:54.771Z,16.84
2018-05-12T06:09:23.040Z,16.91
2018-05-12T06:11:51.377Z,17.08
2018-05-12T06:14:19.707Z,17.58
2018-05-12T06:16:48.056Z,18.30
2018-05-12T06:19:16.393Z,18.79
2018-05-12T06:21:44.740Z,19.18
2018-05-12T06:24:13.076Z,19.34
2018-05-12T06:26:41.438Z,19.47
2018-05-12T06:29:09.769Z,19.48
2018-05-12T06:31:38.131Z,19.12
2018-05-12T06:34:06.452Z,18.96
2018-05-12T06:36:34.809Z,18.89
2018-05-12T06:39:03.151Z,18.99
2018-05-12T06:41:31.497Z,19.11
2018-05-12T06:43:59.824Z,19.31
2018-05-12T06:46:28.184Z,19.20
2018-05-12T06:48:56.514Z,18.97
2018-05-12T06:51:24.996Z,18.73
2018-05-12T06:53:53.312Z,18.64
2018-05-12T06:56:21.678Z,18.45
2018-05-12T06:58:50.580Z,18.39
2018-05-12T07:01:18.949Z,18.17
2018-05-12T07:03:47.269Z,18.04
2018-05-12T07:06:15.637Z,17.99
2018-05-12T07:08:43.996Z,17.92
2018-05-12T07:11:12.352Z,17.93
2018-05-12T07:13:40.685Z,17.88
2018-05-12T07:16:09.045Z,18.04
2018-05-12T07:18:37.389Z,18.08
2018-05-12T07:21:05.749Z,18.15
2018-05-12T07:23:34.082Z,18.30
2018-05-12T07:26:02.476Z,18.31
2018-05-12T07:28:30.812Z,18.34
2018-05-12T07:30:59.182Z,18.41
2018-05-12T07:33:27.529Z,18.50
2018-05-12T07:35:55.880Z,18.68
2018-05-12T07:38:24.225Z,18.88
2018-05-12T07:40:52.581Z,19.01
2018-05-12T07:43:20.922Z,19.21
2018-05-12T07:45:49.684Z,19.32
2018-05-12T07:48:18.026Z,19.49
2018-05-12T07:50:46.381Z,19.72
2018-05-12T07:53:14.721Z,19.88
2018-05-12T07:55:43.077Z,20.00
2018-05-12T07:58:11.416Z,20.26
2018-05-12T08:00:39.808Z,20.24
2018-05-12T08:03:08.128Z,20.15
2018-05-12T08:05:37.130Z,20.16
2018-05-12T08:08:05.464Z,20.07
2018-05-12T08:10:33.828Z,19.95
2018-05-12T08:13:02.169Z,20.04
2018-05-12T08:15:30.504Z,20.07
2018-05-12T08:17:58.860Z,20.12
2018-05-12T08:20:27.201Z,20.24
2018-05-12T08:22:55.561Z,20.34
2018-05-12T08:25:24.001Z,20.39
2018-05-12T08:27:52.365Z,20.75
2018-05-12T08:30:20.703Z,20.84
2018-05-12T08:32:49.064Z,20.96
2018-05-12T08:35:17.400Z,21.13
2018-05-12T08:37:45.765Z,21.18
2018-05-12T08:40:14.101Z,21.08
2018-05-12T08:42:42.468Z,21.19
2018-05-12T08:45:11.580Z,21.26
2018-05-12T08:47:39.953Z,21.17
2018-05-12T08:50:08.286Z,21.32
2018-05-12T08:52:36.909Z,21.38
2018-05-12T08:55:05.464Z,21.56
2018-05-12T08:57:34.135Z,21.80
2018-05-12T09:00:02.771Z,21.64
2018-05-12T09:02:31.484Z,21.76
2018-05-12T09:05:00.183Z,21.81
2018-05-12T09:07:28.978Z,21.94
2018-05-12T09:09:57.664Z,21.98
2018-05-12T09:12:26.122Z,22.02
2018-05-12T09:14:54.792Z,22.14
2018-05-12T09:17:23.144Z,22.25
2018-05-12T09:19:51.476Z,22.33
2018-05-12T09:22:19.852Z,22.25
2018-05-12T09:24:48.201Z,22.21
2018-05-12T09:27:16.557Z,22.11
2018-05-12T09:29:44.914Z,21.91
2018-05-12T09:32:13.260Z,21.69
2018-05-12T09:34:41.601Z,21.71
2018-05-12T09:37:10.043Z,21.71
2018-05-12T09:39:38.338Z,21.88
2018-05-12T09:42:06.662Z,22.05
2018-05-12T09:44:34.999Z,22.08
2018-05-12T09:47:03.349Z,22.22
2018-05-12T09:49:31.688Z,22.26
2018-05-12T09:52:00.045Z,22.29
2018-05-12T09:54:28.382Z,22.48
2018-05-12T09:56:56.724Z,22.23
2018-05-12T09:59:25.133Z,22.06
2018-05-12T10:01:53.416Z,22.03
2018-05-12T10:04:21.759Z,22.11
2018-05-12T10:06:50.112Z,22.01
2018-05-12T10:09:18.444Z,21.72
2018-05-12T10:11:46.800Z,21.78
2018-05-12T10:14:15.132Z,21.91
2018-05-12T10:16:43.457Z,22.10
2018-05-12T10:19:11.800Z,22.15
2018-05-12T10:21:40.124Z,22.43
2018-05-12T10:24:08.477Z,22.80
2018-05-12T10:26:36.800Z,22.72
2018-05-12T10:29:05.144Z,22.69
2018-05-12T10:31:33.472Z,22.56
2018-05-12T10:34:01.829Z,22.43
2018-05-12T10:36:30.158Z,22.25
2018-05-12T10:38:58.524Z,22.47
2018-05-12T10:41:26.833Z,22.78
2018-05-12T10:43:55.676Z,22.86
2018-05-12T10:46:24.008Z,22.84
2018-05-12T10:48:52.365Z,22.68
2018-05-12T10:51:20.704Z,22.73
2018-05-12T10:53:49.056Z,22.86
2018-05-12T10:56:17.396Z,22.95
2018-05-12T10:58:45.744Z,22.97
2018-05-12T11:01:14.156Z,22.82
2018-05-12T11:03:42.840Z,23.08
2018-05-12T11:06:11.176Z,23.15
2018-05-12T11:08:39.525Z,23.16
2018-05-12T11:11:07.872Z,23.14
2018-05-12T11:13:36.454Z,23.26
2018-05-12T11:16:05.100Z,23.32
2018-05-12T11:18:33.335Z,23.39
2018-05-12T11:21:03.393Z,23.46
2018-05-12T11:23:32.015Z,23.47
2018-05-12T11:26:00.389Z,23.66
2018-05-12T11:28:28.785Z,23.63
2018-05-12T11:30:57.247Z,23.56
2018-05-12T11:33:25.625Z,23.60
2018-05-12T11:35:53.964Z,23.54
2018-05-12T11:38:22.955Z,23.65
2018-05-12T11:40:51.276Z,23.59
2018-05-12T11:43:21.465Z,23.62
2018-05-12T11:45:49.860Z,23.52
2018-05-12T11:48:19.132Z,23.73
2018-05-12T11:50:47.469Z,23.91
2018-05-12T11:53:15.825Z,24.07
2018-05-12T11:55:44.160Z,23.97
2018-05-12T11:58:12.516Z,23.89
2018-05-12T12:00:40.844Z,23.85
2018-05-12T12:03:09.204Z,24.02
2018-05-12T12:05:37.539Z,24.23
2018-05-12T12:08:05.901Z,24.26
2018-05-12T12:10:34.619Z,24.13
2018-05-12T12:13:02.969Z,24.08
2018-05-12T12:15:31.300Z,23.85
2018-05-12T12:17:59.669Z,23.74
2018-05-12T12:20:28.008Z,23.92
2018-05-12T12:22:56.340Z,24.05
2018-05-12T12:25:24.705Z,24.24
2018-05-12T12:27:53.034Z,24.34
2018-05-12T12:30:21.385Z,24.38
2018-05-12T12:32:49.725Z,24.40
2018-05-12T12:35:18.077Z,24.35
2018-05-12T12:37:46.408Z,24.18
2018-05-12T12:40:14.764Z,23.98
2018-05-12T12:42:43.092Z,23.72
2018-05-12T12:45:11.493Z,23.73
2018-05-12T12:47:39.810Z,23.70
2018-05-12T12:50:08.147Z,23.64
2018-05-12T12:52:36.478Z,23.76
2018-05-12T12:55:04.824Z,23.74
2018-05-12T12:57:33.157Z,23.90
2018-05-12T13:00:01.518Z,24.02
2018-05-12T13:02:29.905Z,23.87
2018-05-12T13:04:58.210Z,23.89
2018-05-12T13:07:26.552Z,24.00
2018-05-12T13:09:54.908Z,24.30
2018-05-12T13:12:23.240Z,23.88
2018-05-12T13:14:51.596Z,24.07
2018-05-12T13:17:19.928Z,24.12
2018-05-12T13:19:48.287Z,24.08
2018-05-12T13:22:16.621Z,24.13
2018-05-12T13:24:44.980Z,24.21
2018-05-12T13:27:13.325Z,24.18
2018-05-12T13:29:41.683Z,24.20
2018-05-12T13:32:10.009Z,24.30
2018-05-12T13:34:38.380Z,24.28
2018-05-12T13:37:06.721Z,24.31
2018-05-12T13:39:35.080Z,24.33
2018-05-12T13:42:03.417Z,24.40
2018-05-12T13:44:31.779Z,24.29
2018-05-12T13:47:00.112Z,24.39
2018-05-12T13:49:28.460Z,24.39
2018-05-12T13:51:56.801Z,24.41
2018-05-12T13:54:25.192Z,24.25
2018-05-12T13:56:53.538Z,24.43
2018-05-12T13:59:21.853Z,24.58
2018-05-12T14:01:50.785Z,24.47
2018-05-12T14:04:19.142Z,24.52
2018-05-12T14:06:47.477Z,24.52
2018-05-12T14:09:15.834Z,24.61
2018-05-12T14:11:44.169Z,24.55
2018-05-12T14:14:12.520Z,24.53
2018-05-12T14:16:40.860Z,24.64
2018-05-12T14:19:09.221Z,24.45
2018-05-12T14:21:38.331Z,24.46
2018-05-12T14:24:06.661Z,24.32
2018-05-12T14:26:35.004Z,24.37
2018-05-12T14:29:03.337Z,24.35
2018-05-12T14:31:31.697Z,24.30
2018-05-12T14:34:00.033Z,24.26
2018-05-12T14:36:28.397Z,24.18
2018-05-12T14:38:56.724Z,24.16
2018-05-12T14:41:26.072Z,24.16
2018-05-12T14:43:54.440Z,24.19
2018-05-12T14:46:22.813Z,24.31
2018-05-12T14:48:51.157Z,24.51
2018-05-12T14:51:19.541Z,24.50
2018-05-12T14:53:47.898Z,24.33
2018-05-12T14:56:16.364Z,24.21
2018-05-12T14:58:44.704Z,24.26
2018-05-12T15:01:13.057Z,24.33
2018-05-12T15:03:41.397Z,24.38
2018-05-12T15:06:09.753Z,24.34
2018-05-12T15:08:38.092Z,24.33
2018-05-12T15:11:06.447Z,24.14
2018-05-12T15:13:34.784Z,24.29
2018-05-12T15:16:03.141Z,24.16
2018-05-12T15:18:31.472Z,24.09
2018-05-12T15:20:59.835Z,24.30
2018-05-12T15:23:28.167Z,24.28
2018-05-12T15:25:56.556Z,24.31
2018-05-12T15:28:24.861Z,24.29
2018-05-12T15:30:53.221Z,24.29
2018-05-12T15:33:21.564Z,24.18
2018-05-12T15:35:49.926Z,23.96
2018-05-12T15:38:18.327Z,23.94
2018-05-12T15:40:46.668Z,23.93
2018-05-12T15:43:15.002Z,23.91
2018-05-12T15:45:43.389Z,23.99
2018-05-12T15:48:11.692Z,24.05
2018-05-12T15:50:40.053Z,23.95
2018-05-12T15:53:08.387Z,24.00
2018-05-12T15:55:36.745Z,23.94
2018-05-12T15:58:05.081Z,23.97
2018-05-12T16:00:33.446Z,23.90
2018-05-12T16:03:01.786Z,23.78
2018-05-12T16:05:30.129Z,23.84
2018-05-12T16:07:58.470Z,23.92
2018-05-12T16:10:26.851Z,23.88
2018-05-12T16:12:55.200Z,23.93
2018-05-12T16:15:23.566Z,23.87
2018-05-12T16:17:51.924Z,23.81
2018-05-12T16:20:20.317Z,23.79
2018-05-12T16:22:48.640Z,23.82
2018-05-12T16:25:16.994Z,23.83
2018-05-12T16:27:45.353Z,23.90
2018-05-12T16:30:13.692Z,23.91
2018-05-12T16:32:42.053Z,23.88
2018-05-12T16:35:10.393Z,23.89
2018-05-12T16:37:38.753Z,23.88
2018-05-12T16:40:07.104Z,23.85
2018-05-12T16:42:35.457Z,23.73
2018-05-12T16:45:04.157Z,23.73
2018-05-12T16:47:32.914Z,23.72
2018-05-12T16:50:01.605Z,23.71
2018-05-12T16:52:30.360Z,23.70
2018-05-12T16:54:59.126Z,23.57
2018-05-12T16:57:27.761Z,23.55
2018-05-12T16:59:56.252Z,23.54
2018-05-12T17:02:25.049Z,23.55
2018-05-12T17:04:53.768Z,23.55
2018-05-12T17:07:22.516Z,23.55
2018-05-12T17:09:50.987Z,23.60
2018-05-12T17:12:19.737Z,23.49
2018-05-12T17:14:48.421Z,23.46
2018-05-12T17:17:17.057Z,23.41
2018-05-12T17:19:45.693Z,23.34
2018-05-12T17:22:14.462Z,23.44
2018-05-12T17:24:43.174Z,23.37
2018-05-12T17:27:12.638Z,23.37
2018-05-12T17:29:41.295Z,23.37
2018-05-12T17:32:09.759Z,23.24
2018-05-12T17:34:38.443Z,23.18
2018-05-12T17:37:07.190Z,23.15
2018-05-12T17:39:35.956Z,23.11
2018-05-12T17:42:04.728Z,22.98
2018-05-12T17:44:33.333Z,22.98
2018-05-12T17:47:01.987Z,22.92
2018-05-12T17:49:30.660Z,22.89
2018-05-12T17:51:59.458Z,22.84
2018-05-12T17:54:28.995Z,22.79
2018-05-12T17:56:57.830Z,22.68
2018-05-12T17:59:26.619Z,22.63
2018-05-12T18:01:55.363Z,22.62
2018-05-12T18:04:24.129Z,22.50
2018-05-12T18:06:53.004Z,22.44
2018-05-12T18:09:21.360Z,22.42
2018-05-12T18:11:49.725Z,22.42
2018-05-12T18:14:18.056Z,22.35
2018-05-12T18:16:46.408Z,22.38
2018-05-12T18:19:15.141Z,22.44
2018-05-12T18:21:43.876Z,22.37
2018-05-12T18:24:12.570Z,22.20
2018-05-12T18:26:41.351Z,22.15
2018-05-12T18:29:10.299Z,22.16
2018-05-12T18:31:39.041Z,22.15
2018-05-12T18:34:07.689Z,22.07
2018-05-12T18:36:36.425Z,22.05
2018-05-12T18:39:05.953Z,21.92
2018-05-12T18:41:34.716Z,21.94
2018-05-12T18:44:03.597Z,21.94
2018-05-12T18:46:32.265Z,21.94
2018-05-12T18:49:00.998Z,21.90
2018-05-12T18:51:29.672Z,21.79
2018-05-12T18:53:58.358Z,21.72
2018-05-12T18:56:27.042Z,21.72
2018-05-12T18:58:55.889Z,21.72
2018-05-12T19:01:24.464Z,21.72
2018-05-12T19:03:53.078Z,21.65
2018-05-12T19:06:21.930Z,21.57
2018-05-12T19:08:51.338Z,21.58
2018-05-12T19:11:20.007Z,21.50
2018-05-12T19:13:48.733Z,21.48
2018-05-12T19:16:17.369Z,21.42
2018-05-12T19:18:46.137Z,21.25
2018-05-12T19:21:14.740Z,21.12
2018-05-12T19:23:43.437Z,21.11
2018-05-12T19:26:12.090Z,21.05
2018-05-12T19:28:40.765Z,20.98
2018-05-12T19:31:09.439Z,20.83
2018-05-12T19:33:38.144Z,20.94
2018-05-12T19:36:06.814Z,20.78
2018-05-12T19:38:35.510Z,20.73
2018-05-12T19:41:04.190Z,20.72
2018-05-12T19:43:32.875Z,20.69
2018-05-12T19:46:01.578Z,20.55
2018-05-12T19:48:30.288Z,20.64
2018-05-12T19:50:59.033Z,20.70
2018-05-12T19:53:27.768Z,20.80
2018-05-12T19:55:56.457Z,20.93
2018-05-12T19:58:25.320Z,21.64
2018-05-12T20:00:53.964Z,21.29
2018-05-12T20:03:22.634Z,21.32
2018-05-12T20:05:51.314Z,21.20
2018-05-12T20:08:20.044Z,21.09
2018-05-12T20:10:48.639Z,20.99
2018-05-12T20:13:21.162Z,20.89
2018-05-12T20:15:49.864Z,20.87
2018-05-12T20:18:18.590Z,20.82
2018-05-12T20:20:47.276Z,20.84
2018-05-12T20:23:16.014Z,20.92
2018-05-12T20:25:44.719Z,20.90
2018-05-12T20:28:13.465Z,20.86
2018-05-12T20:30:42.181Z,20.83
2018-05-12T20:33:10.912Z,20.79
2018-05-12T20:35:39.555Z,20.77
2018-05-12T20:38:07.955Z,20.73
2018-05-12T20:40:36.284Z,20.70
2018-05-12T20:43:04.659Z,20.71
2018-05-12T20:45:32.984Z,20.71
2018-05-12T20:48:01.355Z,20.51
2018-05-12T20:50:29.693Z,20.33
2018-05-12T20:52:58.057Z,20.36
2018-05-12T20:55:26.396Z,20.47
2018-05-12T20:57:54.728Z,20.36
2018-05-12T21:00:24.085Z,20.42
2018-05-12T21:02:52.426Z,20.42
2018-05-12T21:05:20.785Z,20.38
2018-05-12T21:07:49.138Z,20.32
2018-05-12T21:10:17.489Z,20.24
2018-05-12T21:12:45.820Z,20.10
2018-05-12T21:15:14.196Z,20.11
2018-05-12T21:17:42.529Z,20.06
2018-05-12T21:20:10.885Z,19.93
2018-05-12T21:22:39.220Z,19.94
2018-05-12T21:25:07.590Z,19.87
2018-05-12T21:27:35.933Z,19.76
2018-05-12T21:30:04.301Z,19.58
2018-05-12T21:32:32.645Z,19.67
2018-05-12T21:35:01.000Z,19.59
2018-05-12T21:37:29.344Z,19.56
2018-05-12T21:39:58.529Z,19.51
2018-05-12T21:42:26.866Z,19.43
2018-05-12T21:44:55.248Z,19.42
2018-05-12T21:47:23.576Z,19.74
2018-05-12T21:49:51.943Z,19.45
2018-05-12T21:52:20.273Z,19.35
2018-05-12T21:54:48.633Z,19.23
2018-05-12T21:57:16.971Z,19.19
2018-05-12T21:59:45.329Z,19.22
2018-05-12T22:02:13.669Z,19.23
2018-05-12T22:04:42.029Z,19.24
2018-05-12T22:07:10.365Z,19.24
2018-05-12T22:09:38.728Z,19.07
2018-05-12T22:12:07.069Z,19.06
2018-05-12T22:14:35.420Z,18.85
2018-05-12T22:17:03.764Z,18.73
2018-05-12T22:19:32.821Z,18.75
2018-05-12T22:22:01.157Z,18.78
2018-05-12T22:24:29.516Z,18.80
2018-05-12T22:26:57.856Z,18.74
2018-05-12T22:29:26.213Z,18.90
2018-05-12T22:31:54.552Z,18.89
2018-05-12T22:34:22.905Z,18.90
2018-05-12T22:36:51.249Z,18.86
2018-05-12T22:39:19.609Z,18.95
2018-05-12T22:41:48.930Z,18.99
2018-05-12T22:44:17.285Z,18.95
2018-05-12T22:46:45.624Z,18.97
2018-05-12T22:49:13.980Z,18.89
2018-05-12T22:51:42.325Z,18.86
2018-05-12T22:54:10.680Z,18.76
2018-05-12T22:56:39.020Z,18.74
2018-05-12T22:59:07.388Z,18.65
2018-05-12T23:01:35.716Z,18.52
2018-05-12T23:04:04.127Z,18.48
2018-05-12T23:06:32.425Z,18.52
2018-05-12T23:09:00.763Z,18.57
2018-05-12T23:11:29.115Z,18.53
2018-05-12T23:13:57.440Z,18.53
2018-05-12T23:16:25.796Z,18.53
2018-05-12T23:18:54.141Z,18.59
2018-05-12T23:21:22.497Z,18.56
2018-05-12T23:23:50.825Z,18.62
2018-05-12T23:26:19.188Z,18.45
2018-05-12T23:28:47.521Z,18.39
2018-05-12T23:31:15.881Z,18.37
2018-05-12T23:33:44.207Z,18.39
2018-05-12T23:36:12.564Z,18.35
2018-05-12T23:38:40.900Z,18.30
2018-05-12T23:41:09.261Z,18.28
2018-05-12T23:43:37.593Z,18.28
2018-05-12T23:46:05.961Z,18.22
2018-05-12T23:48:34.301Z,18.25
2018-05-12T23:51:02.658Z,18.24
2018-05-12T23:53:30.992Z,18.24
2018-05-12T23:55:59.348Z,18.28
2018-05-12T23:58:27.686Z,18.35
